sensor_id;sensor_type;location;lat;lon;timestamp;P1;durP1;ratioP1;P2;durP2;ratioP2
32838;SDS011;19182;41.820;12.808;2024-02-21T00:00:05;7.40;;;3.70;;
32838;SDS011;19182;41.820;12.808;2024-02-21T00:02:33;7.20;;;4.47;;
32838;SDS011;19182;41.820;12.808;2024-02-21T00:04:59;6.15;;;3.80;;
32838;SDS011;19182;41.820;12.808;2024-02-21T00:07:24;5.25;;;3.28;;
32838;SDS011;19182;41.820;12.808;2024-02-21T00:09:50;4.78;;;3.05;;
32838;SDS011;19182;41.820;12.808;2024-02-21T00:12:16;5.05;;;3.25;;
32838;SDS011;19182;41.820;12.808;2024-02-21T00:14:43;4.25;;;3.20;;
32838;SDS011;19182;41.820;12.808;2024-02-21T00:17:10;9.23;;;3.50;;
32838;SDS011;19182;41.820;12.808;2024-02-21T00:19:36;4.82;;;3.20;;
32838;SDS011;19182;41.820;12.808;2024-02-21T00:22:03;4.68;;;2.97;;
32838;SDS011;19182;41.820;12.808;2024-02-21T00:24:30;4.03;;;2.85;;
32838;SDS011;19182;41.820;12.808;2024-02-21T00:26:56;5.68;;;3.08;;
32838;SDS011;19182;41.820;12.808;2024-02-21T00:29:22;6.10;;;3.28;;
32838;SDS011;19182;41.820;12.808;2024-02-21T00:31:48;7.30;;;3.38;;
32838;SDS011;19182;41.820;12.808;2024-02-21T00:34:16;7.18;;;3.30;;
32838;SDS011;19182;41.820;12.808;2024-02-21T00:36:42;7.65;;;3.95;;
32838;SDS011;19182;41.820;12.808;2024-02-21T00:39:09;8.20;;;4.07;;
32838;SDS011;19182;41.820;12.808;2024-02-21T00:41:36;6.32;;;3.00;;
32838;SDS011;19182;41.820;12.808;2024-02-21T00:44:03;5.82;;;2.80;;
32838;SDS011;19182;41.820;12.808;2024-02-21T00:46:31;4.53;;;2.80;;
32838;SDS011;19182;41.820;12.808;2024-02-21T00:48:58;6.07;;;3.53;;
32838;SDS011;19182;41.820;12.808;2024-02-21T00:51:24;4.97;;;3.38;;
32838;SDS011;19182;41.820;12.808;2024-02-21T00:53:50;7.13;;;3.30;;
32838;SDS011;19182;41.820;12.808;2024-02-21T00:56:16;7.68;;;3.00;;
32838;SDS011;19182;41.820;12.808;2024-02-21T00:58:43;7.22;;;3.35;;
32838;SDS011;19182;41.820;12.808;2024-02-21T01:01:10;7.00;;;2.95;;
32838;SDS011;19182;41.820;12.808;2024-02-21T01:03:39;8.50;;;3.22;;
32838;SDS011;19182;41.820;12.808;2024-02-21T01:06:06;7.95;;;3.55;;
32838;SDS011;19182;41.820;12.808;2024-02-21T01:08:33;9.65;;;3.20;;
32838;SDS011;19182;41.820;12.808;2024-02-21T01:10:59;6.75;;;3.25;;
32838;SDS011;19182;41.820;12.808;2024-02-21T01:13:25;7.30;;;3.42;;
32838;SDS011;19182;41.820;12.808;2024-02-21T01:15:54;5.28;;;3.17;;
32838;SDS011;19182;41.820;12.808;2024-02-21T01:18:20;6.45;;;3.70;;
32838;SDS011;19182;41.820;12.808;2024-02-21T01:20:45;6.28;;;3.50;;
32838;SDS011;19182;41.820;12.808;2024-02-21T01:23:11;7.72;;;4.00;;
32838;SDS011;19182;41.820;12.808;2024-02-21T01:25:38;8.02;;;4.07;;
32838;SDS011;19182;41.820;12.808;2024-02-21T01:28:06;6.88;;;3.60;;
32838;SDS011;19182;41.820;12.808;2024-02-21T01:30:32;10.25;;;5.18;;
32838;SDS011;19182;41.820;12.808;2024-02-21T01:32:59;9.93;;;4.28;;
32838;SDS011;19182;41.820;12.808;2024-02-21T01:35:25;8.80;;;4.15;;
32838;SDS011;19182;41.820;12.808;2024-02-21T01:37:52;6.45;;;3.95;;
32838;SDS011;19182;41.820;12.808;2024-02-21T01:40:18;6.00;;;3.90;;
32838;SDS011;19182;41.820;12.808;2024-02-21T01:42:47;6.25;;;4.20;;
32838;SDS011;19182;41.820;12.808;2024-02-21T01:45:13;9.48;;;4.05;;
32838;SDS011;19182;41.820;12.808;2024-02-21T01:47:41;7.75;;;3.78;;
32838;SDS011;19182;41.820;12.808;2024-02-21T01:50:08;7.65;;;4.28;;
32838;SDS011;19182;41.820;12.808;2024-02-21T01:52:34;10.05;;;4.88;;
32838;SDS011;19182;41.820;12.808;2024-02-21T01:55:02;5.25;;;4.00;;
32838;SDS011;19182;41.820;12.808;2024-02-21T01:57:29;7.43;;;4.30;;
32838;SDS011;19182;41.820;12.808;2024-02-21T01:59:55;7.07;;;4.40;;
32838;SDS011;19182;41.820;12.808;2024-02-21T02:02:21;5.82;;;3.50;;
32838;SDS011;19182;41.820;12.808;2024-02-21T02:04:47;6.85;;;4.30;;
32838;SDS011;19182;41.820;12.808;2024-02-21T02:09:49;8.00;;;4.97;;
32838;SDS011;19182;41.820;12.808;2024-02-21T02:12:15;7.88;;;4.70;;
32838;SDS011;19182;41.820;12.808;2024-02-21T02:14:41;12.48;;;4.60;;
32838;SDS011;19182;41.820;12.808;2024-02-21T02:17:09;8.25;;;5.30;;
32838;SDS011;19182;41.820;12.808;2024-02-21T02:19:37;10.27;;;5.80;;
32838;SDS011;19182;41.820;12.808;2024-02-21T02:22:06;12.57;;;6.07;;
32838;SDS011;19182;41.820;12.808;2024-02-21T02:24:35;11.20;;;6.40;;
32838;SDS011;19182;41.820;12.808;2024-02-21T02:27:01;10.05;;;5.82;;
32838;SDS011;19182;41.820;12.808;2024-02-21T02:29:31;12.85;;;6.38;;
32838;SDS011;19182;41.820;12.808;2024-02-21T02:32:03;14.77;;;6.78;;
32838;SDS011;19182;41.820;12.808;2024-02-21T02:34:30;15.18;;;8.02;;
32838;SDS011;19182;41.820;12.808;2024-02-21T02:36:58;14.05;;;6.60;;
32838;SDS011;19182;41.820;12.808;2024-02-21T02:39:25;14.90;;;7.72;;
32838;SDS011;19182;41.820;12.808;2024-02-21T02:41:51;14.35;;;7.18;;
32838;SDS011;19182;41.820;12.808;2024-02-21T02:44:21;15.18;;;6.97;;
32838;SDS011;19182;41.820;12.808;2024-02-21T02:46:46;15.93;;;6.70;;
32838;SDS011;19182;41.820;12.808;2024-02-21T02:49:12;13.40;;;6.75;;
32838;SDS011;19182;41.820;12.808;2024-02-21T02:51:42;12.00;;;6.68;;
32838;SDS011;19182;41.820;12.808;2024-02-21T02:54:08;7.97;;;4.50;;
32838;SDS011;19182;41.820;12.808;2024-02-21T02:56:34;9.38;;;4.60;;
32838;SDS011;19182;41.820;12.808;2024-02-21T02:59:01;8.50;;;4.20;;
32838;SDS011;19182;41.820;12.808;2024-02-21T03:01:27;8.88;;;4.45;;
32838;SDS011;19182;41.820;12.808;2024-02-21T03:03:53;7.07;;;4.45;;
32838;SDS011;19182;41.820;12.808;2024-02-21T03:06:19;9.82;;;4.43;;
32838;SDS011;19182;41.820;12.808;2024-02-21T03:08:46;11.15;;;4.43;;
32838;SDS011;19182;41.820;12.808;2024-02-21T03:11:20;7.75;;;3.90;;
32838;SDS011;19182;41.820;12.808;2024-02-21T03:13:53;7.35;;;3.80;;
32838;SDS011;19182;41.820;12.808;2024-02-21T03:16:20;7.95;;;4.32;;
32838;SDS011;19182;41.820;12.808;2024-02-21T03:18:47;8.23;;;4.75;;
32838;SDS011;19182;41.820;12.808;2024-02-21T03:21:18;8.80;;;4.30;;
32838;SDS011;19182;41.820;12.808;2024-02-21T03:23:46;10.13;;;5.50;;
32838;SDS011;19182;41.820;12.808;2024-02-21T03:26:12;7.88;;;4.38;;
32838;SDS011;19182;41.820;12.808;2024-02-21T03:28:42;10.48;;;4.40;;
32838;SDS011;19182;41.820;12.808;2024-02-21T03:31:11;9.10;;;4.95;;
32838;SDS011;19182;41.820;12.808;2024-02-21T03:33:40;9.40;;;4.68;;
32838;SDS011;19182;41.820;12.808;2024-02-21T03:36:12;7.35;;;4.35;;
32838;SDS011;19182;41.820;12.808;2024-02-21T03:38:40;6.55;;;4.03;;
32838;SDS011;19182;41.820;12.808;2024-02-21T03:41:06;9.32;;;4.00;;
32838;SDS011;19182;41.820;12.808;2024-02-21T03:43:33;7.25;;;3.58;;
32838;SDS011;19182;41.820;12.808;2024-02-21T03:45:59;7.05;;;3.60;;
32838;SDS011;19182;41.820;12.808;2024-02-21T03:48:26;5.63;;;3.47;;
32838;SDS011;19182;41.820;12.808;2024-02-21T03:50:53;8.77;;;3.13;;
32838;SDS011;19182;41.820;12.808;2024-02-21T03:53:20;10.70;;;3.63;;
32838;SDS011;19182;41.820;12.808;2024-02-21T03:55:47;4.88;;;2.85;;
32838;SDS011;19182;41.820;12.808;2024-02-21T03:58:13;5.43;;;3.17;;
32838;SDS011;19182;41.820;12.808;2024-02-21T04:00:42;6.80;;;3.63;;
32838;SDS011;19182;41.820;12.808;2024-02-21T04:05:35;5.20;;;3.40;;
32838;SDS011;19182;41.820;12.808;2024-02-21T04:08:03;8.50;;;2.92;;
32838;SDS011;19182;41.820;12.808;2024-02-21T04:10:33;6.22;;;3.58;;
32838;SDS011;19182;41.820;12.808;2024-02-21T04:13:02;6.20;;;3.50;;
32838;SDS011;19182;41.820;12.808;2024-02-21T04:15:29;7.45;;;3.33;;
32838;SDS011;19182;41.820;12.808;2024-02-21T04:17:56;7.05;;;3.10;;
32838;SDS011;19182;41.820;12.808;2024-02-21T04:20:29;6.43;;;2.95;;
32838;SDS011;19182;41.820;12.808;2024-02-21T04:22:57;6.10;;;2.40;;
32838;SDS011;19182;41.820;12.808;2024-02-21T04:25:23;5.00;;;2.53;;
32838;SDS011;19182;41.820;12.808;2024-02-21T04:27:50;4.53;;;2.08;;
32838;SDS011;19182;41.820;12.808;2024-02-21T04:30:17;4.93;;;2.30;;
32838;SDS011;19182;41.820;12.808;2024-02-21T04:32:43;5.80;;;2.33;;
32838;SDS011;19182;41.820;12.808;2024-02-21T04:35:09;3.67;;;2.22;;
32838;SDS011;19182;41.820;12.808;2024-02-21T04:37:34;4.60;;;2.15;;
32838;SDS011;19182;41.820;12.808;2024-02-21T04:40:00;2.45;;;2.13;;
32838;SDS011;19182;41.820;12.808;2024-02-21T04:42:26;5.10;;;2.38;;
32838;SDS011;19182;41.820;12.808;2024-02-21T04:44:52;5.68;;;2.55;;
32838;SDS011;19182;41.820;12.808;2024-02-21T04:47:18;5.30;;;2.80;;
32838;SDS011;19182;41.820;12.808;2024-02-21T04:49:45;4.35;;;2.75;;
32838;SDS011;19182;41.820;12.808;2024-02-21T04:52:11;6.25;;;2.40;;
32838;SDS011;19182;41.820;12.808;2024-02-21T04:54:39;3.95;;;2.22;;
32838;SDS011;19182;41.820;12.808;2024-02-21T04:57:07;6.93;;;2.25;;
32838;SDS011;19182;41.820;12.808;2024-02-21T04:59:35;10.83;;;5.10;;
32838;SDS011;19182;41.820;12.808;2024-02-21T05:02:01;7.45;;;3.70;;
32838;SDS011;19182;41.820;12.808;2024-02-21T05:04:30;17.33;;;7.75;;
32838;SDS011;19182;41.820;12.808;2024-02-21T05:06:56;25.20;;;10.32;;
32838;SDS011;19182;41.820;12.808;2024-02-21T05:09:22;18.60;;;8.70;;
32838;SDS011;19182;41.820;12.808;2024-02-21T05:11:48;12.77;;;5.75;;
32838;SDS011;19182;41.820;12.808;2024-02-21T05:14:14;16.08;;;6.50;;
32838;SDS011;19182;41.820;12.808;2024-02-21T05:16:40;12.75;;;5.25;;
32838;SDS011;19182;41.820;12.808;2024-02-21T05:19:07;8.40;;;4.60;;
32838;SDS011;19182;41.820;12.808;2024-02-21T05:21:34;8.88;;;4.13;;
32838;SDS011;19182;41.820;12.808;2024-02-21T05:24:01;7.82;;;3.95;;
32838;SDS011;19182;41.820;12.808;2024-02-21T05:26:28;7.10;;;4.00;;
32838;SDS011;19182;41.820;12.808;2024-02-21T05:28:55;5.80;;;2.70;;
32838;SDS011;19182;41.820;12.808;2024-02-21T05:31:21;11.32;;;4.10;;
32838;SDS011;19182;41.820;12.808;2024-02-21T05:33:46;5.75;;;2.58;;
32838;SDS011;19182;41.820;12.808;2024-02-21T05:36:12;5.70;;;2.28;;
32838;SDS011;19182;41.820;12.808;2024-02-21T05:38:38;6.60;;;2.67;;
32838;SDS011;19182;41.820;12.808;2024-02-21T05:41:04;6.93;;;2.40;;
32838;SDS011;19182;41.820;12.808;2024-02-21T05:43:30;5.80;;;2.97;;
32838;SDS011;19182;41.820;12.808;2024-02-21T05:45:57;5.13;;;2.78;;
32838;SDS011;19182;41.820;12.808;2024-02-21T05:48:23;5.72;;;3.40;;
32838;SDS011;19182;41.820;12.808;2024-02-21T05:50:49;4.22;;;2.45;;
32838;SDS011;19182;41.820;12.808;2024-02-21T05:53:15;5.68;;;2.80;;
32838;SDS011;19182;41.820;12.808;2024-02-21T05:55:42;6.70;;;3.17;;
32838;SDS011;19182;41.820;12.808;2024-02-21T05:58:08;5.38;;;2.95;;
32838;SDS011;19182;41.820;12.808;2024-02-21T06:00:38;8.32;;;2.92;;
32838;SDS011;19182;41.820;12.808;2024-02-21T06:03:05;5.82;;;2.92;;
32838;SDS011;19182;41.820;12.808;2024-02-21T06:05:36;10.07;;;4.40;;
32838;SDS011;19182;41.820;12.808;2024-02-21T06:08:04;6.75;;;3.20;;
32838;SDS011;19182;41.820;12.808;2024-02-21T06:10:30;7.93;;;3.40;;
32838;SDS011;19182;41.820;12.808;2024-02-21T06:12:56;9.07;;;4.00;;
32838;SDS011;19182;41.820;12.808;2024-02-21T06:15:22;10.55;;;4.20;;
32838;SDS011;19182;41.820;12.808;2024-02-21T06:17:48;8.90;;;5.20;;
32838;SDS011;19182;41.820;12.808;2024-02-21T06:20:35;8.43;;;4.15;;
32838;SDS011;19182;41.820;12.808;2024-02-21T06:23:01;8.02;;;4.10;;
32838;SDS011;19182;41.820;12.808;2024-02-21T06:25:27;13.18;;;5.93;;
32838;SDS011;19182;41.820;12.808;2024-02-21T06:27:53;13.65;;;5.95;;
32838;SDS011;19182;41.820;12.808;2024-02-21T06:30:19;14.05;;;8.80;;
32838;SDS011;19182;41.820;12.808;2024-02-21T06:32:45;19.02;;;9.02;;
32838;SDS011;19182;41.820;12.808;2024-02-21T06:35:11;16.00;;;8.98;;
32838;SDS011;19182;41.820;12.808;2024-02-21T06:37:38;19.20;;;10.02;;
32838;SDS011;19182;41.820;12.808;2024-02-21T06:40:05;27.20;;;13.25;;
32838;SDS011;19182;41.820;12.808;2024-02-21T06:42:33;27.27;;;14.02;;
32838;SDS011;19182;41.820;12.808;2024-02-21T06:44:58;27.23;;;13.75;;
32838;SDS011;19182;41.820;12.808;2024-02-21T06:47:24;19.00;;;11.52;;
32838;SDS011;19182;41.820;12.808;2024-02-21T06:49:50;26.33;;;11.57;;
32838;SDS011;19182;41.820;12.808;2024-02-21T06:52:19;21.02;;;10.65;;
32838;SDS011;19182;41.820;12.808;2024-02-21T06:54:48;19.67;;;10.77;;
32838;SDS011;19182;41.820;12.808;2024-02-21T06:57:14;14.50;;;8.10;;
32838;SDS011;19182;41.820;12.808;2024-02-21T06:59:41;13.93;;;6.60;;
32838;SDS011;19182;41.820;12.808;2024-02-21T07:02:07;13.35;;;7.57;;
32838;SDS011;19182;41.820;12.808;2024-02-21T07:04:33;16.58;;;7.38;;
32838;SDS011;19182;41.820;12.808;2024-02-21T07:06:59;20.90;;;8.27;;
32838;SDS011;19182;41.820;12.808;2024-02-21T07:09:27;16.15;;;7.97;;
32838;SDS011;19182;41.820;12.808;2024-02-21T07:11:53;13.80;;;7.38;;
32838;SDS011;19182;41.820;12.808;2024-02-21T07:14:19;14.13;;;7.35;;
32838;SDS011;19182;41.820;12.808;2024-02-21T07:16:49;14.57;;;6.60;;
32838;SDS011;19182;41.820;12.808;2024-02-21T07:19:19;11.23;;;6.40;;
32838;SDS011;19182;41.820;12.808;2024-02-21T07:21:45;12.90;;;7.00;;
32838;SDS011;19182;41.820;12.808;2024-02-21T07:24:10;10.98;;;6.82;;
32838;SDS011;19182;41.820;12.808;2024-02-21T07:26:37;10.20;;;5.80;;
32838;SDS011;19182;41.820;12.808;2024-02-21T07:29:06;11.15;;;7.10;;
32838;SDS011;19182;41.820;12.808;2024-02-21T07:31:38;10.13;;;5.97;;
32838;SDS011;19182;41.820;12.808;2024-02-21T07:34:06;13.32;;;5.53;;
32838;SDS011;19182;41.820;12.808;2024-02-21T07:36:31;9.10;;;5.38;;
32838;SDS011;19182;41.820;12.808;2024-02-21T07:38:57;10.98;;;4.75;;
32838;SDS011;19182;41.820;12.808;2024-02-21T07:41:23;4.15;;;3.58;;
32838;SDS011;19182;41.820;12.808;2024-02-21T07:43:50;5.82;;;3.20;;
32838;SDS011;19182;41.820;12.808;2024-02-21T07:46:16;6.45;;;3.17;;
32838;SDS011;19182;41.820;12.808;2024-02-21T07:48:45;7.63;;;2.88;;
32838;SDS011;19182;41.820;12.808;2024-02-21T07:51:12;7.57;;;3.40;;
32838;SDS011;19182;41.820;12.808;2024-02-21T07:56:10;7.20;;;3.20;;
32838;SDS011;19182;41.820;12.808;2024-02-21T07:58:37;4.00;;;2.25;;
32838;SDS011;19182;41.820;12.808;2024-02-21T08:01:04;3.53;;;2.22;;
32838;SDS011;19182;41.820;12.808;2024-02-21T08:03:31;9.00;;;2.35;;
32838;SDS011;19182;41.820;12.808;2024-02-21T08:05:57;2.88;;;2.20;;
32838;SDS011;19182;41.820;12.808;2024-02-21T08:08:24;5.78;;;2.60;;
32838;SDS011;19182;41.820;12.808;2024-02-21T08:10:51;6.97;;;2.72;;
32838;SDS011;19182;41.820;12.808;2024-02-21T08:13:26;4.45;;;2.85;;
32838;SDS011;19182;41.820;12.808;2024-02-21T08:15:53;5.30;;;3.75;;
32838;SDS011;19182;41.820;12.808;2024-02-21T08:18:22;5.47;;;2.70;;
32838;SDS011;19182;41.820;12.808;2024-02-21T08:20:47;8.13;;;2.92;;
32838;SDS011;19182;41.820;12.808;2024-02-21T08:23:18;3.85;;;2.53;;
32838;SDS011;19182;41.820;12.808;2024-02-21T08:25:44;6.28;;;3.45;;
32838;SDS011;19182;41.820;12.808;2024-02-21T08:28:10;8.70;;;4.70;;
32838;SDS011;19182;41.820;12.808;2024-02-21T08:30:39;9.48;;;4.40;;
32838;SDS011;19182;41.820;12.808;2024-02-21T08:33:12;10.55;;;5.75;;
32838;SDS011;19182;41.820;12.808;2024-02-21T08:35:40;8.65;;;5.28;;
32838;SDS011;19182;41.820;12.808;2024-02-21T08:38:06;9.02;;;5.28;;
32838;SDS011;19182;41.820;12.808;2024-02-21T08:40:32;7.07;;;5.10;;
32838;SDS011;19182;41.820;12.808;2024-02-21T08:43:00;8.13;;;5.65;;
32838;SDS011;19182;41.820;12.808;2024-02-21T08:45:28;7.80;;;5.60;;
32838;SDS011;19182;41.820;12.808;2024-02-21T08:47:54;10.70;;;5.30;;
32838;SDS011;19182;41.820;12.808;2024-02-21T08:50:21;7.57;;;5.18;;
32838;SDS011;19182;41.820;12.808;2024-02-21T08:52:48;9.35;;;5.90;;
32838;SDS011;19182;41.820;12.808;2024-02-21T08:55:15;9.52;;;5.60;;
32838;SDS011;19182;41.820;12.808;2024-02-21T08:57:40;8.23;;;5.45;;
32838;SDS011;19182;41.820;12.808;2024-02-21T09:00:08;9.80;;;6.45;;
32838;SDS011;19182;41.820;12.808;2024-02-21T09:02:41;9.57;;;6.22;;
32838;SDS011;19182;41.820;12.808;2024-02-21T09:05:08;7.35;;;5.20;;
32838;SDS011;19182;41.820;12.808;2024-02-21T09:07:38;6.53;;;4.20;;
32838;SDS011;19182;41.820;12.808;2024-02-21T09:10:12;5.85;;;4.25;;
32838;SDS011;19182;41.820;12.808;2024-02-21T09:12:38;6.95;;;4.22;;
32838;SDS011;19182;41.820;12.808;2024-02-21T09:15:04;5.18;;;3.40;;
32838;SDS011;19182;41.820;12.808;2024-02-21T09:17:32;5.15;;;3.30;;
32838;SDS011;19182;41.820;12.808;2024-02-21T09:20:00;3.65;;;2.25;;
32838;SDS011;19182;41.820;12.808;2024-02-21T09:22:28;3.83;;;2.03;;
32838;SDS011;19182;41.820;12.808;2024-02-21T09:24:56;3.05;;;1.63;;
32838;SDS011;19182;41.820;12.808;2024-02-21T09:27:22;5.13;;;1.77;;
32838;SDS011;19182;41.820;12.808;2024-02-21T09:29:48;4.22;;;2.15;;
32838;SDS011;19182;41.820;12.808;2024-02-21T09:32:15;4.22;;;2.10;;
32838;SDS011;19182;41.820;12.808;2024-02-21T09:34:41;3.38;;;2.38;;
32838;SDS011;19182;41.820;12.808;2024-02-21T09:37:10;4.30;;;3.30;;
32838;SDS011;19182;41.820;12.808;2024-02-21T09:42:07;5.53;;;3.35;;
32838;SDS011;19182;41.820;12.808;2024-02-21T09:44:43;3.30;;;2.75;;
32838;SDS011;19182;41.820;12.808;2024-02-21T09:47:17;4.60;;;2.65;;
32838;SDS011;19182;41.820;12.808;2024-02-21T09:50:05;5.32;;;2.90;;
32838;SDS011;19182;41.820;12.808;2024-02-21T09:52:33;4.80;;;2.65;;
32838;SDS011;19182;41.820;12.808;2024-02-21T09:55:01;2.70;;;2.20;;
32838;SDS011;19182;41.820;12.808;2024-02-21T09:57:31;2.83;;;2.15;;
32838;SDS011;19182;41.820;12.808;2024-02-21T09:59:58;3.28;;;2.20;;
32838;SDS011;19182;41.820;12.808;2024-02-21T10:02:27;5.68;;;2.53;;
32838;SDS011;19182;41.820;12.808;2024-02-21T10:04:55;3.58;;;2.58;;
32838;SDS011;19182;41.820;12.808;2024-02-21T10:07:26;5.72;;;2.30;;
32838;SDS011;19182;41.820;12.808;2024-02-21T10:10:02;5.32;;;2.42;;
32838;SDS011;19182;41.820;12.808;2024-02-21T10:12:29;3.70;;;2.20;;
32838;SDS011;19182;41.820;12.808;2024-02-21T10:15:01;4.00;;;2.67;;
32838;SDS011;19182;41.820;12.808;2024-02-21T10:17:27;5.47;;;2.70;;
32838;SDS011;19182;41.820;12.808;2024-02-21T10:19:54;3.55;;;2.28;;
32838;SDS011;19182;41.820;12.808;2024-02-21T10:22:19;6.68;;;2.90;;
32838;SDS011;19182;41.820;12.808;2024-02-21T10:24:50;5.53;;;3.33;;
32838;SDS011;19182;41.820;12.808;2024-02-21T10:27:19;5.70;;;3.35;;
32838;SDS011;19182;41.820;12.808;2024-02-21T10:29:50;8.07;;;3.53;;
32838;SDS011;19182;41.820;12.808;2024-02-21T10:32:17;6.72;;;3.45;;
32838;SDS011;19182;41.820;12.808;2024-02-21T10:34:44;4.97;;;3.30;;
32838;SDS011;19182;41.820;12.808;2024-02-21T10:37:12;5.07;;;3.42;;
32838;SDS011;19182;41.820;12.808;2024-02-21T10:39:41;6.38;;;3.80;;
32838;SDS011;19182;41.820;12.808;2024-02-21T10:42:07;10.07;;;4.60;;
32838;SDS011;19182;41.820;12.808;2024-02-21T10:44:37;10.95;;;6.00;;
32838;SDS011;19182;41.820;12.808;2024-02-21T10:47:10;8.93;;;5.03;;
32838;SDS011;19182;41.820;12.808;2024-02-21T10:49:39;5.78;;;3.33;;
32838;SDS011;19182;41.820;12.808;2024-02-21T10:55:26;12.48;;;8.50;;
32838;SDS011;19182;41.820;12.808;2024-02-21T10:58:04;8.52;;;5.00;;
32838;SDS011;19182;41.820;12.808;2024-02-21T11:00:32;6.88;;;2.83;;
32838;SDS011;19182;41.820;12.808;2024-02-21T11:02:58;3.63;;;2.63;;
32838;SDS011;19182;41.820;12.808;2024-02-21T11:05:26;5.68;;;3.22;;
32838;SDS011;19182;41.820;12.808;2024-02-21T11:08:02;3.65;;;2.30;;
32838;SDS011;19182;41.820;12.808;2024-02-21T11:10:36;4.35;;;2.47;;
32838;SDS011;19182;41.820;12.808;2024-02-21T11:15:33;3.88;;;2.80;;
32838;SDS011;19182;41.820;12.808;2024-02-21T11:17:59;4.45;;;3.45;;
32838;SDS011;19182;41.820;12.808;2024-02-21T11:20:31;2.88;;;2.38;;
32838;SDS011;19182;41.820;12.808;2024-02-21T11:22:59;5.88;;;2.50;;
32838;SDS011;19182;41.820;12.808;2024-02-21T11:25:26;4.47;;;2.00;;
32838;SDS011;19182;41.820;12.808;2024-02-21T11:28:01;6.38;;;2.33;;
32838;SDS011;19182;41.820;12.808;2024-02-21T11:30:31;4.18;;;2.85;;
32838;SDS011;19182;41.820;12.808;2024-02-21T11:33:01;5.07;;;2.60;;
32838;SDS011;19182;41.820;12.808;2024-02-21T11:35:34;4.85;;;3.42;;
32838;SDS011;19182;41.820;12.808;2024-02-21T11:38:11;9.52;;;3.33;;
32838;SDS011;19182;41.820;12.808;2024-02-21T11:40:44;6.55;;;3.85;;
32838;SDS011;19182;41.820;12.808;2024-02-21T11:43:17;5.65;;;3.30;;
32838;SDS011;19182;41.820;12.808;2024-02-21T11:45:45;6.13;;;2.40;;
32838;SDS011;19182;41.820;12.808;2024-02-21T11:48:11;8.32;;;2.67;;
32838;SDS011;19182;41.820;12.808;2024-02-21T11:50:39;4.43;;;2.38;;
32838;SDS011;19182;41.820;12.808;2024-02-21T11:53:05;7.15;;;2.72;;
32838;SDS011;19182;41.820;12.808;2024-02-21T11:55:31;3.92;;;2.28;;
32838;SDS011;19182;41.820;12.808;2024-02-21T11:57:57;7.47;;;2.20;;
32838;SDS011;19182;41.820;12.808;2024-02-21T12:00:23;4.22;;;2.63;;
32838;SDS011;19182;41.820;12.808;2024-02-21T12:02:50;3.10;;;2.13;;
32838;SDS011;19182;41.820;12.808;2024-02-21T12:05:20;2.80;;;2.30;;
32838;SDS011;19182;41.820;12.808;2024-02-21T12:07:47;6.38;;;2.63;;
32838;SDS011;19182;41.820;12.808;2024-02-21T12:10:14;5.25;;;2.53;;
32838;SDS011;19182;41.820;12.808;2024-02-21T12:12:41;3.75;;;3.03;;
32838;SDS011;19182;41.820;12.808;2024-02-21T12:15:07;4.03;;;3.17;;
32838;SDS011;19182;41.820;12.808;2024-02-21T12:17:34;3.63;;;2.70;;
32838;SDS011;19182;41.820;12.808;2024-02-21T12:20:02;6.75;;;3.17;;
32838;SDS011;19182;41.820;12.808;2024-02-21T12:22:33;4.05;;;3.15;;
32838;SDS011;19182;41.820;12.808;2024-02-21T12:25:15;6.32;;;2.92;;
32838;SDS011;19182;41.820;12.808;2024-02-21T12:27:43;3.53;;;2.30;;
32838;SDS011;19182;41.820;12.808;2024-02-21T12:30:11;4.38;;;2.33;;
32838;SDS011;19182;41.820;12.808;2024-02-21T12:32:39;5.15;;;2.67;;
32838;SDS011;19182;41.820;12.808;2024-02-21T12:35:04;7.05;;;2.30;;
32838;SDS011;19182;41.820;12.808;2024-02-21T12:37:30;4.07;;;2.00;;
32838;SDS011;19182;41.820;12.808;2024-02-21T12:39:58;3.50;;;2.33;;
32838;SDS011;19182;41.820;12.808;2024-02-21T12:42:26;4.82;;;2.20;;
32838;SDS011;19182;41.820;12.808;2024-02-21T12:44:52;3.38;;;1.90;;
32838;SDS011;19182;41.820;12.808;2024-02-21T12:47:18;2.50;;;1.60;;
32838;SDS011;19182;41.820;12.808;2024-02-21T12:49:48;2.83;;;1.90;;
32838;SDS011;19182;41.820;12.808;2024-02-21T12:52:14;4.40;;;1.98;;
32838;SDS011;19182;41.820;12.808;2024-02-21T12:54:41;3.30;;;1.83;;
32838;SDS011;19182;41.820;12.808;2024-02-21T12:57:10;3.08;;;1.55;;
32838;SDS011;19182;41.820;12.808;2024-02-21T12:59:37;2.97;;;1.55;;
32838;SDS011;19182;41.820;12.808;2024-02-21T13:02:04;5.40;;;1.63;;
32838;SDS011;19182;41.820;12.808;2024-02-21T13:04:31;3.13;;;1.77;;
32838;SDS011;19182;41.820;12.808;2024-02-21T13:06:58;5.55;;;2.70;;
32838;SDS011;19182;41.820;12.808;2024-02-21T13:09:25;11.65;;;7.22;;
32838;SDS011;19182;41.820;12.808;2024-02-21T13:11:52;4.03;;;1.77;;
32838;SDS011;19182;41.820;12.808;2024-02-21T13:14:23;3.00;;;2.03;;
32838;SDS011;19182;41.820;12.808;2024-02-21T13:16:50;3.97;;;1.90;;
32838;SDS011;19182;41.820;12.808;2024-02-21T13:19:16;2.38;;;1.58;;
32838;SDS011;19182;41.820;12.808;2024-02-21T13:21:44;5.95;;;1.73;;
32838;SDS011;19182;41.820;12.808;2024-02-21T13:24:12;1.97;;;1.60;;
32838;SDS011;19182;41.820;12.808;2024-02-21T13:26:38;5.03;;;2.00;;
32838;SDS011;19182;41.820;12.808;2024-02-21T13:29:05;2.97;;;1.92;;
32838;SDS011;19182;41.820;12.808;2024-02-21T13:31:32;5.50;;;2.38;;
32838;SDS011;19182;41.820;12.808;2024-02-21T13:33:59;3.55;;;2.50;;
32838;SDS011;19182;41.820;12.808;2024-02-21T13:36:25;3.95;;;2.42;;
32838;SDS011;19182;41.820;12.808;2024-02-21T13:38:51;4.45;;;2.22;;
32838;SDS011;19182;41.820;12.808;2024-02-21T13:41:18;3.97;;;2.17;;
32838;SDS011;19182;41.820;12.808;2024-02-21T13:43:54;3.25;;;1.90;;
32838;SDS011;19182;41.820;12.808;2024-02-21T13:46:21;3.53;;;2.42;;
32838;SDS011;19182;41.820;12.808;2024-02-21T13:48:52;3.58;;;2.38;;
32838;SDS011;19182;41.820;12.808;2024-02-21T13:51:27;4.10;;;2.33;;
32838;SDS011;19182;41.820;12.808;2024-02-21T13:53:54;6.55;;;3.08;;
32838;SDS011;19182;41.820;12.808;2024-02-21T13:56:22;5.05;;;3.30;;
32838;SDS011;19182;41.820;12.808;2024-02-21T13:58:48;6.28;;;3.22;;
32838;SDS011;19182;41.820;12.808;2024-02-21T14:01:15;5.40;;;3.20;;
32838;SDS011;19182;41.820;12.808;2024-02-21T14:03:42;6.75;;;2.88;;
32838;SDS011;19182;41.820;12.808;2024-02-21T14:06:09;6.55;;;3.03;;
32838;SDS011;19182;41.820;12.808;2024-02-21T14:08:37;2.33;;;2.13;;
32838;SDS011;19182;41.820;12.808;2024-02-21T14:11:05;3.30;;;1.98;;
32838;SDS011;19182;41.820;12.808;2024-02-21T14:13:32;6.70;;;2.47;;
32838;SDS011;19182;41.820;12.808;2024-02-21T14:15:59;6.90;;;2.50;;
32838;SDS011;19182;41.820;12.808;2024-02-21T14:18:25;3.08;;;1.98;;
32838;SDS011;19182;41.820;12.808;2024-02-21T14:20:52;3.58;;;2.22;;
32838;SDS011;19182;41.820;12.808;2024-02-21T14:23:22;2.83;;;1.95;;
32838;SDS011;19182;41.820;12.808;2024-02-21T14:25:49;4.47;;;2.45;;
32838;SDS011;19182;41.820;12.808;2024-02-21T14:28:15;2.50;;;1.92;;
32838;SDS011;19182;41.820;12.808;2024-02-21T14:30:43;3.95;;;1.63;;
32838;SDS011;19182;41.820;12.808;2024-02-21T14:33:12;2.85;;;1.95;;
32838;SDS011;19182;41.820;12.808;2024-02-21T14:35:39;3.80;;;1.85;;
32838;SDS011;19182;41.820;12.808;2024-02-21T14:38:15;3.80;;;1.90;;
32838;SDS011;19182;41.820;12.808;2024-02-21T14:40:44;1.88;;;1.50;;
32838;SDS011;19182;41.820;12.808;2024-02-21T14:43:11;10.05;;;2.30;;
32838;SDS011;19182;41.820;12.808;2024-02-21T14:45:38;5.78;;;2.53;;
32838;SDS011;19182;41.820;12.808;2024-02-21T14:48:05;3.75;;;2.40;;